New Orleans, Louisiana
Traffic Map
Current Weather Conditions
New Orleans, Louisiana
Broken Clouds
Broken Clouds
68°
Feels Like: 68°
Wind Chill: 68° Ceiling: 2200
Heat Index: 68° Visibility: 7mi
Dew Point: 68° Wind: 9mph
Humidity: 100% Direction: 60° (ENE)
Pressure: 29.94in Gusts: 0mph
Raw Report DataKNEW 021208Z AUTO 06008KT 7SM BKN022 20/20 A2994 RMK AO2 T02000200 $
Traffic Incident Summary
Active as of:
Severity:
Category:
InformationThere was an issue retrieving the traffic information for this location. Please try a different location or try again shortly.
Advertisements
Track Severe Weather on mobile